Time;durP1;ratioP1;P1;durP2;ratioP2;P2;SDS_P1;SDS_P2;PMS_P1;PMS_P2;Temp;Humidity;BMP_temperature;BMP_pressure;BME280_temperature;BME280_humidity;BME280_pressure;Samples;Min_cycle;Max_cycle;Signal;HPM_P1;HPM_P2
2023/05/06 00:02:51;;;;;;;12.40;7.30;;;;;;;10.85;58.44;100467.89;126658;1289;114878;-67
2023/05/06 00:06:34;;;;;;;8.90;5.70;;;;;;;10.82;58.77;100468.23;126731;1289;115016;-70
2023/05/06 00:10:20;;;;;;;;;;;;;;;;;;;;;
2023/05/06 00:14:06;;;;;;;12.10;5.40;;;;;;;10.74;58.90;100457.15;125647;1303;114868;-70
2023/05/06 00:17:48;;;;;;;;;;;;;;;10.71;58.99;100452.48;125914;1295;114984;-65
2023/05/06 00:21:41;;;;;;;;;;;;;;;;;;;;;
2023/05/06 00:25:45;;;;;;;9.20;6.80;;;;;;;10.66;59.45;100444.67;126140;1297;636321;-63
2023/05/06 00:29:41;;;;;;;11.40;6.30;;;;;;;10.61;59.75;100437.59;128922;1272;128892;-68
2023/05/06 00:33:30;;;;;;;;;;;;;;;;;;;;;
2023/05/06 00:40:55;;;;;;;18.40;6.30;;;;;;;10.53;59.68;100436.02;124272;1297;114939;-69
2023/05/06 00:44:52;;;;;;;13.50;7.20;;;;;;;10.50;60.06;100432.38;128369;1287;114840;-70
2023/05/06 00:48:34;;;;;;;;;;;;;;;;;;;;;
2023/05/06 00:52:25;;;;;;;;;;;;;;;;;;;;;
2023/05/06 00:55:54;;;;;;;13.40;7.00;;;;;;;10.51;60.57;100431.98;126173;1310;115215;-69
2023/05/06 00:59:43;;;;;;;;;;;;;;;;;;;;;
2023/05/06 01:03:30;;;;;;;;;;;;;;;;;;;;;
2023/05/06 01:07:23;;;;;;;10.60;6.20;;;;;;;10.55;60.70;100429.13;124576;1311;115102;-68
2023/05/06 01:10:59;;;;;;;12.30;5.90;;;;;;;10.57;60.73;100426.38;125826;1312;129742;-69
2023/05/06 01:15:15;;;;;;;;;;;;;;;;;;;;;
2023/05/06 01:19:17;;;;;;;17.80;6.00;;;;;;;10.61;60.77;100432.77;126241;1295;115034;-68
2023/05/06 01:23:17;;;;;;;;;;;;;;;;;;;;;
2023/05/06 01:26:52;;;;;;;9.70;5.60;;;;;;;10.65;60.49;100437.57;125251;1308;114961;-69
2023/05/06 01:30:45;;;;;;;9.30;6.00;;;;;;;10.67;60.63;100434.61;125300;1303;130163;-68
2023/05/06 01:34:37;;;;;;;9.10;5.90;;;;;;;10.68;60.94;100439.20;125470;1312;115727;-69
2023/05/06 01:38:45;;;;;;;10.80;5.50;;;;;;;10.69;60.97;100432.23;125529;1299;116547;-68
2023/05/06 01:42:50;;;;;;;12.50;5.60;;;;;;;10.69;60.95;100430.05;126405;1295;114965;-69
2023/05/06 01:46:44;;;;;;;9.40;5.40;;;;;;;10.70;60.89;100428.04;125332;1305;114900;-70
2023/05/06 01:54:58;;;;;;;9.90;5.60;;;;;;;10.74;60.66;100415.36;126267;1297;635945;-70
2023/05/06 01:58:39;;;;;;;;;;;;;;;;;;;;;
2023/05/06 02:02:42;;;;;;;11.70;5.90;;;;;;;10.72;61.00;100405.98;127664;1288;115184;-69
2023/05/06 02:06:34;;;;;;;;;;;;;;;;;;;;;
2023/05/06 02:10:21;;;;;;;;;;;;;;;;;;;;;
2023/05/06 02:14:02;;;;;;;;;;;;;;;;;;;;;
2023/05/06 02:18:05;;;;;;;;;;;;;;;;;;;;;
2023/05/06 02:21:37;;;;;;;11.10;6.00;;;;;;;10.69;61.36;100391.46;126636;1296;128961;-70
2023/05/06 02:25:31;;;;;;;8.40;5.20;;;;;;;10.70;61.21;100389.13;126454;1297;115056;-69
2023/05/06 02:29:36;;;;;;;9.40;5.80;;;;;;;10.71;61.17;100384.80;125525;1316;114951;-69
2023/05/06 02:33:22;;;;;;;;;;;;;;;;;;;;;
2023/05/06 02:37:25;;;;;;;12.00;6.00;;;;;;;10.70;61.06;100389.27;124998;1310;115462;-70
2023/05/06 02:41:19;;;;;;;9.90;6.70;;;;;;;10.71;61.45;100390.33;123955;1334;130606;-68
2023/05/06 02:45:04;;;;;;;14.60;5.70;;;;;;;10.71;61.34;100392.84;123342;1323;115332;-71
2023/05/06 02:48:51;;;;;;;8.50;5.80;;;;;;;10.71;61.19;100389.61;124842;1310;115057;-71
2023/05/06 02:52:33;;;;;;;9.30;5.40;;;;;;;10.71;61.19;100387.63;124872;1307;114965;-67
2023/05/06 03:01:08;;;;;;;11.20;5.60;;;;;;;10.73;61.29;100387.91;125457;1309;639467;-70
2023/05/06 03:05:03;;;;;;;9.20;5.70;;;;;;;10.69;61.59;100387.01;127745;1299;129817;-69
2023/05/06 03:09:05;;;;;;;10.60;5.50;;;;;;;10.67;61.62;100386.21;126779;1306;115381;-69
2023/05/06 03:13:02;;;;;;;;;;;;;;;;;;;;;
2023/05/06 03:17:00;;;;;;;8.10;5.20;;;;;;;10.64;61.45;100398.14;125351;1311;116766;-68
2023/05/06 03:21:05;;;;;;;10.20;5.90;;;;;;;10.63;61.31;100417.29;125157;1325;114878;-70
2023/05/06 03:24:41;;;;;;;10.80;5.60;;;;;;;10.64;61.52;100430.67;124963;1307;128562;-70
2023/05/06 03:28:19;;;;;;;11.40;5.80;;;;;;;10.64;61.18;100435.11;124456;1309;115409;-70
2023/05/06 03:32:03;;;;;;;13.60;6.00;;;;;;;10.63;61.36;100430.67;124027;1322;115181;-68
2023/05/06 03:40:19;;;;;;;11.10;5.60;;;;;;;10.68;61.48;100451.03;125859;1314;638516;-68
2023/05/06 03:43:54;;;;;;;21.30;16.20;;;;;;;10.69;61.26;100459.20;127817;1297;128789;-70
2023/05/06 03:47:04;;;;;;;15.30;8.20;;;;;;;10.70;61.50;100461.13;128959;1292;114927;-70
2023/05/06 03:50:57;;;;;;;12.70;6.50;;;;;;;10.71;61.43;100467.50;128700;1273;114802;-69
2023/05/06 03:54:42;;;;;;;14.60;8.60;;;;;;;10.72;61.56;100462.80;124611;1276;5241532;-70
2023/05/06 03:58:39;;;;;;;;;;;;;;;;;;;;;
2023/05/06 04:02:34;;;;;;;;;;;;;;;;;;;;;
2023/05/06 04:06:19;;;;;;;13.50;5.70;;;;;;;10.63;62.13;100447.67;125495;1303;114895;-69
2023/05/06 04:09:55;;;;;;;10.80;6.20;;;;;;;10.59;62.63;100444.81;125437;1321;114980;-70
2023/05/06 04:13:29;;;;;;;20.90;6.50;;;;;;;10.54;62.59;100442.95;124891;1306;114896;-70
2023/05/06 04:16:53;;;;;;;;;;;;;;;;;;;;;
2023/05/06 04:20:35;;;;;;;10.50;6.90;;;;;;;10.42;63.57;100437.23;124825;1306;130068;-71
2023/05/06 04:24:36;;;;;;;14.20;7.70;;;;;;;10.35;64.15;100435.75;125026;1317;116558;-65
2023/05/06 04:32:46;;;;;;;10.50;6.50;;;;;;;10.24;64.58;100426.22;126059;1300;636010;-69
2023/05/06 04:36:36;;;;;;;11.50;7.30;;;;;;;10.14;65.56;100412.21;128454;1273;128849;-70
2023/05/06 04:40:41;;;;;;;13.30;7.20;;;;;;;10.05;65.73;100400.33;127745;1281;115000;-71
2023/05/06 04:44:28;;;;;;;;;;;;;;;;;;;;;
2023/05/06 04:48:15;;;;;;;9.90;6.60;;;;;;;9.92;66.12;100375.77;122689;1302;115063;-69
2023/05/06 04:52:09;;;;;;;17.00;8.90;;;;;;;9.88;66.22;100362.90;126770;1286;116107;-68
2023/05/06 04:55:39;;;;;;;;;;;;;;;;;;;;;
2023/05/06 05:03:46;;;;;;;;;;;;;;;;;;;;;
2023/05/06 05:07:50;;;;;;;8.90;7.00;;;;;;;9.86;66.17;100324.27;127536;1276;115148;-72
2023/05/06 05:11:45;;;;;;;;;;;;;;;;;;;;;
2023/05/06 05:15:30;;;;;;;10.10;6.80;;;;;;;9.88;65.71;100319.76;125811;1305;114814;-70
2023/05/06 05:19:13;;;;;;;9.30;7.60;;;;;;;9.91;65.82;100345.31;125289;1323;114932;-71
2023/05/06 05:22:57;;;;;;;;;;;;;;;;;;;;;
2023/05/06 05:26:47;;;;;;;10.70;6.50;;;;;;;10.00;65.54;100351.86;125255;1303;115409;-73
2023/05/06 05:30:16;;;;;;;;;;;;;;;;;;;;;
2023/05/06 05:38:21;;;;;;;;;;;;;;;;;;;;;
2023/05/06 05:42:18;;;;;;;;;;;;;;;;;;;;;
2023/05/06 05:45:59;;;;;;;;;;;;;;;;;;;;;
2023/05/06 05:49:38;;;;;;;10.00;5.10;;;;;;;10.21;64.98;100387.84;128163;1284;114887;-64
2023/05/06 05:57:43;;;;;;;;;;;;;;;;;;;;;
2023/05/06 06:01:33;;;;;;;14.30;7.20;;;;;;;10.25;65.03;100390.89;128108;1287;128965;-71
2023/05/06 06:05:35;;;;;;;13.20;6.90;;;;;;;10.27;65.00;100391.67;128015;1281;115475;-72
2023/05/06 06:13:26;;;;;;;;;;;;;;;;;;;;;
2023/05/06 06:17:26;;;;;;;;;;;;;;;;;;;;;
2023/05/06 06:21:29;;;;;;;10.50;7.40;;;;;;;10.32;65.81;100386.06;124585;1330;114929;-70
2023/05/06 06:24:52;;;;;;;;;;;;;;;;;;;;;
2023/05/06 06:28:58;;;;;;;12.10;7.10;;;;;;;10.33;65.90;100393.70;126397;1303;637187;-70
2023/05/06 06:32:53;;;;;;;12.20;6.90;;;;;;;10.35;66.58;100388.80;129591;1286;129953;-71
2023/05/06 06:36:50;;;;;;;;;;;;;;;;;;;;;
2023/05/06 06:40:15;;;;;;;19.60;9.30;;;;;;;10.27;66.65;100387.89;126901;1290;114918;-71
2023/05/06 06:44:08;;;;;;;;;;;;;;;;;;;;;
2023/05/06 06:48:02;;;;;;;12.10;8.20;;;;;;;10.15;67.25;100395.79;125761;1318;114860;-69
2023/05/06 06:51:56;;;;;;;;;;;;;;;;;;;;;
2023/05/06 06:55:58;;;;;;;14.80;9.90;;;;;;;10.04;67.89;100390.56;125257;1301;129576;-72
2023/05/06 07:04:26;;;;;;;13.50;9.90;;;;;;;9.94;68.77;100396.04;125560;1311;640211;-72
2023/05/06 07:08:24;;;;;;;13.30;8.10;;;;;;;9.87;69.18;100396.50;126839;1301;128413;-70
2023/05/06 07:12:27;;;;;;;17.70;9.10;;;;;;;9.82;69.38;100397.60;126673;1291;115406;-74
2023/05/06 07:16:16;;;;;;;;;;;;;;;;;;;;;
2023/05/06 07:20:04;;;;;;;18.90;8.20;;;;;;;9.75;69.93;100395.77;125531;1317;114977;-71
2023/05/06 07:23:56;;;;;;;;;;;;;;;;;;;;;
2023/05/06 07:27:38;;;;;;;17.60;9.90;;;;;;;9.71;70.69;100394.71;124912;1312;114843;-72
2023/05/06 07:31:32;;;;;;;;;;;;;;;;;;;;;
2023/05/06 07:35:18;;;;;;;18.80;9.20;;;;;;;9.63;71.57;100388.11;124674;1308;115354;-72
2023/05/06 07:39:06;;;;;;;;;;;;;;;;;;;;;
2023/05/06 07:43:26;;;;;;;;;;;;;;;;;;;;;
2023/05/06 07:47:22;;;;;;;;;;;;;;;;;;;;;
2023/05/06 07:51:26;;;;;;;17.90;9.40;;;;;;;8.87;76.94;100347.50;126375;1310;116411;-66
2023/05/06 07:55:03;;;;;;;17.30;9.50;;;;;;;8.66;78.19;100343.71;122706;1293;5462398;-67
2023/05/06 07:59:02;;;;;;;35.10;9.00;;;;;;;8.54;78.56;100348.85;126825;1288;114801;-68
2023/05/06 08:02:42;;;;;;;;;;;;;;;;;;;;;
2023/05/06 08:06:13;;;;;;;;;;;;;;;;;;;;;
2023/05/06 08:10:08;;;;;;;17.10;11.40;;;;;;;8.44;81.06;100332.33;125470;1307;130109;-66
2023/05/06 08:13:56;;;;;;;;;;;;;;;;;;;;;
2023/05/06 08:17:31;;;;;;;32.80;18.50;;;;;;;8.46;82.29;100333.30;124303;1319;115014;-67
2023/05/06 08:21:29;;;;;;;25.60;15.80;;;;;;;8.49;82.59;100320.59;124367;1313;115058;-70
2023/05/06 08:25:05;;;;;;;;;;;;;;;;;;;;;
2023/05/06 08:28:32;;;;;;;27.30;13.10;;;;;;;8.42;83.37;100299.30;125533;1318;129944;-68
2023/05/06 08:32:20;;;;;;;;;;;;;;;;;;;;;
2023/05/06 08:35:38;;;;;;;25.20;12.00;;;;;;;8.35;84.07;100309.21;126337;1299;114866;-67
2023/05/06 08:39:36;;;;;;;21.30;14.00;;;;;;;8.35;84.08;100333.59;126729;1283;114872;-67
2023/05/06 08:43:30;;;;;;;20.00;13.00;;;;;;;8.40;84.29;100393.36;126152;1306;114898;-68
2023/05/06 08:47:23;;;;;;;31.00;17.00;;;;;;;8.51;84.43;100421.94;126308;1295;128358;-71
2023/05/06 08:51:10;;;;;;;;;;;;;;;;;;;;;
2023/05/06 08:55:05;;;;;;;20.10;13.10;;;;;;;8.85;84.99;100416.85;126096;1293;114947;-69
2023/05/06 08:58:42;;;;;;;;;;;;;;;;;;;;;
2023/05/06 09:02:26;;;;;;;;;;;;;;;;;;;;;
2023/05/06 09:06:01;;;;;;;24.50;13.70;;;;;;;9.34;84.91;100386.70;125941;1313;129837;-71
2023/05/06 09:09:46;;;;;;;31.70;14.70;;;;;;;9.41;84.90;100377.66;126301;1297;115339;-70
2023/05/06 09:13:36;;;;;;;27.30;13.30;;;;;;;9.45;85.05;100372.52;126112;1303;115032;-73
2023/05/06 09:17:30;;;;;;;16.50;12.50;;;;;;;9.48;85.21;100368.13;126071;1302;114974;-74
2023/05/06 09:21:30;;;;;;;23.00;13.40;;;;;;;9.48;85.12;100357.59;126416;1311;114877;-74
2023/05/06 09:25:21;;;;;;;18.50;12.40;;;;;;;9.51;85.42;100349.41;126515;1312;129703;-74
2023/05/06 09:29:14;;;;;;;;;;;;;;;;;;;;;
2023/05/06 09:32:50;;;;;;;;;;;;;;;;;;;;;
2023/05/06 09:36:42;;;;;;;25.20;14.40;;;;;;;10.18;86.98;100352.98;126003;1319;114926;-74
2023/05/06 09:40:36;;;;;;;19.00;14.20;;;;;;;10.42;86.98;100352.77;125671;1309;114879;-76
2023/05/06 09:44:31;;;;;;;18.00;14.80;;;;;;;10.59;86.62;100357.10;125889;1302;131170;-76
2023/05/06 09:48:01;;;;;;;24.00;14.70;;;;;;;10.83;87.14;100364.70;126014;1301;115223;-73
2023/05/06 09:51:51;;;;;;;;;;;;;;;;;;;;;
2023/05/06 09:55:55;;;;;;;18.30;12.00;;;;;;;10.96;85.60;100378.91;125986;1300;114961;-62
2023/05/06 09:59:37;;;;;;;23.50;14.10;;;;;;;10.79;85.23;100379.20;125038;1323;114925;-63
2023/05/06 10:07:38;;;;;;;;;;;;;;;;;;;;;
2023/05/06 10:11:25;;;;;;;18.60;11.40;;;;;;;10.44;85.49;100367.50;128554;1276;128365;-61
2023/05/06 10:15:29;;;;;;;13.90;11.70;;;;;;;10.36;85.64;100363.05;127988;1282;115448;-62
2023/05/06 10:19:14;;;;;;;15.00;11.30;;;;;;;10.25;85.68;100357.11;127357;1281;114973;-63
2023/05/06 10:23:32;;;;;;;;;;;;;;;;;;;;;
2023/05/06 10:27:29;;;;;;;15.80;10.80;;;;;;;10.18;86.05;100358.33;127388;1285;114944;-62
2023/05/06 10:31:31;;;;;;;19.80;12.40;;;;;;;10.16;86.43;100353.06;127026;1307;114839;-63
2023/05/06 10:35:31;;;;;;;;;;;;;;;;;;;;;
2023/05/06 10:39:21;;;;;;;;;;;;;;;;;;;;;
2023/05/06 10:43:09;;;;;;;20.70;13.40;;;;;;;10.04;86.60;100356.29;125211;1323;114896;-63
2023/05/06 10:47:04;;;;;;;16.90;11.90;;;;;;;9.97;86.50;100357.00;125372;1320;114906;-62
2023/05/06 10:51:11;;;;;;;;;;;;;;;;;;;;;
2023/05/06 10:55:21;;;;;;;;;;;;;;;;;;;;;
2023/05/06 10:59:24;;;;;;;16.40;11.20;;;;;;;10.08;87.67;100356.69;125495;1313;115224;-62
2023/05/06 11:03:17;;;;;;;;;;;;;;;;;;;;;
2023/05/06 11:11:51;;;;;;;;;;;;;;;;;;;;;
2023/05/06 11:16:06;;;;;;;18.50;12.80;;;;;;;10.32;87.99;100361.08;128841;1289;127762;-61
2023/05/06 11:20:02;;;;;;;15.60;11.60;;;;;;;10.44;88.44;100354.65;129062;1284;114756;-63
2023/05/06 11:24:04;;;;;;;19.10;12.30;;;;;;;10.46;87.93;100359.04;124118;1287;5444225;-64
2023/05/06 11:28:00;;;;;;;15.90;12.10;;;;;;;10.49;88.17;100366.55;128488;1284;114818;-60
2023/05/06 11:31:55;;;;;;;16.80;11.70;;;;;;;10.55;88.24;100361.48;128543;1276;114753;-63
2023/05/06 11:35:54;;;;;;;18.60;11.30;;;;;;;10.63;88.30;100359.79;127931;1276;128195;-62
2023/05/06 11:39:45;;;;;;;14.70;11.80;;;;;;;10.71;88.12;100364.77;126738;1301;115425;-62
2023/05/06 11:43:44;;;;;;;;;;;;;;;;;;;;;
2023/05/06 11:47:17;;;;;;;;;;;;;;;10.75;88.12;100359.59;126844;1304;114858;-62
2023/05/06 11:51:18;;;;;;;17.80;11.20;;;;;;;10.78;88.04;100360.88;127072;1306;114930;-62
2023/05/06 11:55:13;;;;;;;18.50;12.90;;;;;;;10.92;88.55;100372.32;126191;1307;128988;-61
2023/05/06 11:58:59;;;;;;;;;;;;;;;;;;;;;
2023/05/06 12:02:20;;;;;;;19.00;12.70;;;;;;;10.97;88.07;100378.70;126103;1308;115309;-62
2023/05/06 12:06:23;;;;;;;16.20;10.90;;;;;;;10.99;88.33;100384.48;126085;1294;114776;-62
2023/05/06 12:10:23;;;;;;;;;;;;;;;;;;;;;
2023/05/06 12:14:18;;;;;;;14.50;10.70;;;;;;;11.21;88.44;100383.92;125349;1312;129854;-63
2023/05/06 12:18:05;;;;;;;;;;;;;;;;;;;;;
2023/05/06 12:21:54;;;;;;;17.10;10.30;;;;;;;11.33;88.17;100394.36;125108;1317;114938;-61
2023/05/06 12:25:53;;;;;;;;;;;;;;;;;;;;;
2023/05/06 12:30:02;;;;;;;;;;;;;;;;;;;;;
2023/05/06 12:34:05;;;;;;;15.80;10.40;;;;;;;11.33;87.82;100395.61;123317;1337;129740;-64
2023/05/06 12:38:09;;;;;;;14.00;10.90;;;;;;;11.24;87.49;100397.70;124117;1331;114957;-64
2023/05/06 12:42:13;;;;;;;14.60;11.50;;;;;;;11.22;87.68;100394.73;123378;1323;115101;-62
2023/05/06 12:46:03;;;;;;;18.10;11.30;;;;;;;11.22;88.02;100396.73;123417;1316;115014;-63
2023/05/06 12:49:58;;;;;;;;;;;;;;;;;;;;;
2023/05/06 12:54:13;;;;;;;16.00;11.80;;;;;;;11.24;88.38;100398.05;123720;1333;129997;-61
2023/05/06 12:58:03;;;;;;;;;;;;;;;;;;;;;
2023/05/06 13:10:21;;;;;;;15.90;11.30;;;;;;;11.33;88.70;100388.70;128012;1276;128753;-62
2023/05/06 13:18:19;;;;;;;19.20;12.00;;;;;;;11.57;88.96;100389.20;126622;1300;635968;-61
2023/05/06 13:22:18;;;;;;;17.00;11.50;;;;;;;11.62;88.96;100392.54;127745;1279;128335;-62
2023/05/06 13:26:21;;;;;;;19.00;12.00;;;;;;;11.61;88.63;100393.68;126981;1296;115184;-60
2023/05/06 13:34:26;;;;;;;19.80;15.00;;;;;;;11.55;88.91;100392.90;121353;1314;114980;-61
2023/05/06 13:38:05;;;;;;;23.50;18.50;;;;;;;11.49;88.22;100387.10;123756;1327;114830;-62
2023/05/06 13:46:11;;;;;;;;;;;;;;;;;;;;;
2023/05/06 13:50:06;;;;;;;;;;;;;;;;;;;;;
2023/05/06 13:53:42;;;;;;;;;;;;;;;;;;;;;
2023/05/06 13:57:46;;;;;;;24.40;17.10;;;;;;;11.36;89.28;100387.59;127864;1274;114922;-61
2023/05/06 14:01:40;;;;;;;21.30;16.80;;;;;;;11.35;88.84;100384.29;123326;1286;114793;-63
2023/05/06 14:05:44;;;;;;;24.00;16.40;;;;;;;11.26;88.80;100387.05;126909;1292;114923;-61
2023/05/06 14:09:40;;;;;;;;;;;;;;;;;;;;;
2023/05/06 14:13:42;;;;;;;19.50;15.00;;;;;;;11.18;88.98;100384.95;125287;1314;128537;-60
2023/05/06 14:21:46;;;;;;;21.50;15.20;;;;;;;11.14;89.07;100383.39;126293;1298;636083;-61
2023/05/06 14:25:45;;;;;;;;;;;;;;;;;;;;;
2023/05/06 14:29:41;;;;;;;;;;;;;;;;;;;;;
2023/05/06 14:37:45;;;;;;;24.20;16.40;;;;;;;10.88;89.13;100392.14;122927;1300;115220;-60
2023/05/06 14:41:46;;;;;;;18.60;15.40;;;;;;;10.84;89.16;100397.02;126049;1311;114922;-62
2023/05/06 14:45:38;;;;;;;23.50;14.20;;;;;;;10.84;89.25;100397.40;125803;1299;114873;-61
2023/05/06 14:49:37;;;;;;;18.00;14.30;;;;;;;10.82;89.34;100399.42;125058;1302;129952;-61
2023/05/06 14:52:51;;;;;;;20.50;14.30;;;;;;;10.78;89.49;100400.15;124520;1308;115366;-61
2023/05/06 15:00:39;;;;;;;;;;;;;;;;;;;;;
2023/05/06 15:04:37;;;;;;;23.50;16.80;;;;;;;10.73;89.90;100415.78;128678;1274;128847;-61
2023/05/06 15:08:25;;;;;;;22.20;16.10;;;;;;;10.74;90.17;100420.35;128210;1296;115267;-61
2023/05/06 15:12:12;;;;;;;22.40;14.80;;;;;;;10.78;90.41;100425.70;127578;1283;114811;-61
2023/05/06 15:16:15;;;;;;;18.50;15.30;;;;;;;10.73;89.79;100424.35;123431;1289;114910;-61
2023/05/06 15:20:06;;;;;;;;;;;;;;;;;;;;;
2023/05/06 15:23:36;;;;;;;;;;;;;;;;;;;;;
2023/05/06 15:27:32;;;;;;;;;;;;;;;;;;;;;
2023/05/06 15:31:02;;;;;;;22.50;15.70;;;;;;;10.69;90.51;100432.73;125567;1302;115262;-61
2023/05/06 15:35:08;;;;;;;16.40;14.20;;;;;;;10.70;90.50;100432.16;125902;1314;114795;-62
2023/05/06 15:38:11;;;;;;;19.70;14.30;;;;;;;10.69;90.35;100431.84;125598;1306;114940;-61
2023/05/06 15:41:26;;;;;;;20.80;15.30;;;;;;;10.66;90.09;100430.92;125703;1317;114923;-59
2023/05/06 15:44:28;;;;;;;22.50;16.50;;;;;;;10.59;90.03;100429.13;125940;1295;130437;-63
2023/05/06 15:47:51;;;;;;;18.50;15.50;;;;;;;10.56;90.01;100434.09;127075;1284;114937;-63
2023/05/06 15:50:55;;;;;;;20.90;15.30;;;;;;;10.54;89.94;100435.27;127451;1286;114929;-63
2023/05/06 15:53:58;;;;;;;19.70;15.70;;;;;;;10.56;90.44;100444.25;128223;1276;115033;-62
2023/05/06 15:57:11;;;;;;;23.70;16.90;;;;;;;10.58;90.24;100442.04;128587;1272;115385;-61
2023/05/06 16:00:23;;;;;;;17.90;14.20;;;;;;;10.55;90.07;100442.52;128757;1286;128509;-59
2023/05/06 16:03:41;;;;;;;18.80;15.20;;;;;;;10.52;89.87;100449.42;128727;1290;115887;-59
2023/05/06 16:06:58;;;;;;;19.90;14.80;;;;;;;10.51;89.55;100445.20;128887;1273;115267;-60
2023/05/06 16:10:04;;;;;;;19.50;14.10;;;;;;;10.46;89.11;100447.20;130160;1270;114770;-61
2023/05/06 16:13:18;;;;;;;21.10;16.10;;;;;;;10.44;89.08;100446.63;130182;1263;114981;-59
2023/05/06 16:16:55;;;;;;;22.00;16.00;;;;;;;10.43;88.85;100450.21;130291;1265;127961;-60
2023/05/06 16:20:11;;;;;;;12.30;10.20;;;;;;;10.43;89.02;100451.98;130132;1274;115084;-60
2023/05/06 16:23:57;;;;;;;21.60;16.80;;;;;;;10.43;88.77;100453.77;130316;1256;114695;-60
2023/05/06 16:27:16;;;;;;;21.10;17.90;;;;;;;10.39;88.62;100445.92;129571;1283;114885;-60
2023/05/06 16:31:22;;;;;;;;;;;;;;;;;;;;;
2023/05/06 16:35:01;;;;;;;21.70;14.00;;;;;;;10.40;88.76;100448.75;129248;1270;128741;-62
2023/05/06 16:38:31;;;;;;;15.80;12.30;;;;;;;10.44;88.61;100447.13;129272;1277;115249;-62
2023/05/06 16:42:04;;;;;;;;;;;;;;;;;;;;;
2023/05/06 16:49:27;;;;;;;;;;;;;;;;;;;;;
2023/05/06 16:53:02;;;;;;;14.30;11.40;;;;;;;10.38;88.00;100457.22;127490;1285;128911;-60
2023/05/06 16:57:06;;;;;;;13.20;10.20;;;;;;;10.35;87.80;100460.90;127936;1281;115434;-60
2023/05/06 17:00:25;;;;;;;12.60;10.70;;;;;;;10.31;87.37;100459.83;126541;1299;115067;-60
2023/05/06 17:03:49;;;;;;;12.00;9.80;;;;;;;10.29;87.68;100464.19;127462;1286;114975;-65
2023/05/06 17:06:54;;;;;;;11.00;9.50;;;;;;;10.24;87.50;100464.43;127682;1303;114936;-66
2023/05/06 17:10:16;;;;;;;10.60;9.10;;;;;;;10.18;87.28;100470.02;127641;1285;128102;-66
2023/05/06 17:13:30;;;;;;;11.70;7.90;;;;;;;10.15;87.46;100479.13;127725;1280;115538;-68
2023/05/06 17:16:54;;;;;;;11.40;8.80;;;;;;;10.10;87.32;100479.73;127777;1283;114888;-67
2023/05/06 17:20:14;;;;;;;9.50;8.10;;;;;;;10.06;87.43;100484.52;128166;1284;115003;-67
2023/05/06 17:23:25;;;;;;;9.90;8.40;;;;;;;10.05;87.29;100485.80;128387;1280;115062;-67
2023/05/06 17:26:50;;;;;;;;;;;;;;;;;;;;;
2023/05/06 17:30:30;;;;;;;12.10;9.10;;;;;;;10.01;87.46;100482.27;128426;1290;114921;-69
2023/05/06 17:34:06;;;;;;;;;;;;;;;;;;;;;
2023/05/06 17:37:58;;;;;;;12.90;8.90;;;;;;;9.95;87.32;100484.99;130099;1273;114815;-67
2023/05/06 17:41:03;;;;;;;8.40;7.10;;;;;;;9.91;87.28;100486.44;130479;1254;115007;-69
2023/05/06 17:44:17;;;;;;;;;;;;;;;;;;;;;
2023/05/06 17:47:25;;;;;;;10.80;8.10;;;;;;;9.78;87.26;100498.08;130790;1255;115240;-67
2023/05/06 17:50:29;;;;;;;13.30;7.80;;;;;;;9.73;87.19;100503.45;130703;1254;114699;-67
2023/05/06 17:53:39;;;;;;;10.50;7.70;;;;;;;9.67;87.09;100505.13;130774;1256;114722;-68
2023/05/06 17:56:47;;;;;;;10.30;7.60;;;;;;;9.61;87.08;100502.34;130506;1254;114991;-73
2023/05/06 18:00:15;;;;;;;11.80;8.70;;;;;;;9.56;87.17;100505.73;130348;1257;128938;-68
2023/05/06 18:03:40;;;;;;;14.60;9.10;;;;;;;9.55;87.13;100508.81;130362;1276;115097;-69
2023/05/06 18:07:11;;;;;;;;;;;;;;;9.54;87.24;100512.41;130427;1254;114734;-72
2023/05/06 18:10:42;;;;;;;13.60;8.10;;;;;;;9.52;87.15;100519.44;130566;1253;114768;-70
2023/05/06 18:13:49;;;;;;;9.40;7.60;;;;;;;9.50;87.02;100520.27;130563;1254;114737;-69
2023/05/06 18:17:17;;;;;;;13.00;8.90;;;;;;;9.46;87.33;100528.42;130481;1275;129042;-68
2023/05/06 18:20:41;;;;;;;12.80;8.80;;;;;;;9.41;87.16;100533.09;130300;1256;115231;-67
2023/05/06 18:24:30;;;;;;;11.70;8.70;;;;;;;9.38;86.92;100536.27;130147;1257;114983;-69
2023/05/06 18:27:51;;;;;;;;;;;;;;;;;;;;;
2023/05/06 18:31:23;;;;;;;;;;;;;;;;;;;;;
2023/05/06 18:34:50;;;;;;;;;;;;;;;;;;;;;
2023/05/06 18:38:24;;;;;;;21.90;15.90;;;;;;;9.28;87.23;100540.73;129808;1260;115279;-68
2023/05/06 18:41:32;;;;;;;23.60;17.80;;;;;;;9.30;87.19;100548.89;129854;1263;114859;-67
2023/05/06 18:45:14;;;;;;;;;;;;;;;;;;;;;
2023/05/06 18:48:49;;;;;;;16.60;10.40;;;;;;;9.25;87.21;100556.75;129461;1257;114859;-68
2023/05/06 18:52:09;;;;;;;;;;;;;;;;;;;;;
2023/05/06 18:55:18;;;;;;;13.90;10.00;;;;;;;9.25;87.25;100564.41;129801;1276;115176;-68
2023/05/06 18:58:38;;;;;;;;;;;;;;;;;;;;;
2023/05/06 19:02:21;;;;;;;14.60;11.30;;;;;;;9.24;87.20;100572.46;130527;1256;115364;-67
2023/05/06 19:05:51;;;;;;;;;;;;;;;;;;;;;
2023/05/06 19:09:36;;;;;;;12.70;9.30;;;;;;;9.14;87.01;100577.84;130368;1254;128624;-69
2023/05/06 19:13:19;;;;;;;15.50;10.90;;;;;;;9.07;86.85;100584.16;130554;1264;114798;-71
2023/05/06 19:16:51;;;;;;;11.50;9.20;;;;;;;9.02;86.82;100586.14;130646;1257;114686;-68
2023/05/06 19:20:32;;;;;;;12.60;9.30;;;;;;;8.98;86.80;100585.78;130616;1256;115218;-68
2023/05/06 19:23:58;;;;;;;;;;;;;;;;;;;;;
2023/05/06 19:27:23;;;;;;;16.40;9.70;;;;;;;8.91;86.69;100591.19;130590;1254;128947;-68
2023/05/06 19:30:47;;;;;;;19.20;12.50;;;;;;;8.87;86.56;100591.69;130325;1275;115228;-69
2023/05/06 19:34:00;;;;;;;14.50;10.50;;;;;;;8.88;86.77;100599.14;130605;1274;114773;-68
2023/05/06 19:37:51;;;;;;;16.10;10.60;;;;;;;8.87;86.67;100603.29;130662;1275;114824;-67
2023/05/06 19:41:26;;;;;;;14.00;10.00;;;;;;;8.83;86.69;100601.64;129777;1263;114930;-67
2023/05/06 19:44:56;;;;;;;10.10;8.30;;;;;;;8.77;86.39;100606.84;129668;1283;128807;-67
2023/05/06 19:48:02;;;;;;;13.80;8.80;;;;;;;8.73;86.53;100608.95;129667;1260;117229;-67
2023/05/06 19:51:28;;;;;;;11.70;9.00;;;;;;;8.72;86.73;100611.48;129631;1264;114892;-68
2023/05/06 19:54:38;;;;;;;10.40;8.20;;;;;;;8.71;86.73;100613.50;129696;1281;115302;-69
2023/05/06 19:58:12;;;;;;;10.50;8.00;;;;;;;8.70;86.40;100618.34;129621;1264;114856;-69
2023/05/06 20:02:10;;;;;;;;;;;;;;;;;;;;;
2023/05/06 20:06:11;;;;;;;14.30;9.00;;;;;;;8.65;86.30;100619.75;129574;1266;115007;-68
2023/05/06 20:09:55;;;;;;;20.50;11.60;;;;;;;8.65;86.50;100627.39;129377;1270;114962;-68
2023/05/06 20:13:59;;;;;;;21.70;12.80;;;;;;;8.66;86.71;100623.84;128596;1270;114978;-69
2023/05/06 20:18:00;;;;;;;21.50;12.70;;;;;;;8.65;86.47;100623.67;128357;1294;114938;-69
2023/05/06 20:21:38;;;;;;;;;;;;;;;;;;;;;
2023/05/06 20:25:41;;;;;;;14.60;9.80;;;;;;;8.61;86.51;100625.60;128280;1288;116381;-68
2023/05/06 20:33:18;;;;;;;;;;;;;;;;;;;;;
2023/05/06 20:37:04;;;;;;;14.10;8.30;;;;;;;8.46;86.83;100628.56;127275;1284;115420;-68
2023/05/06 20:40:44;;;;;;;11.40;8.80;;;;;;;8.44;86.92;100632.76;126313;1314;128133;-69
2023/05/06 20:44:39;;;;;;;;;;;;;;;;;;;;;
2023/05/06 20:48:29;;;;;;;;;;;;;;;;;;;;;
2023/05/06 20:52:22;;;;;;;11.00;8.30;;;;;;;8.36;86.90;100636.23;126114;1317;114807;-69
2023/05/06 20:56:06;;;;;;;10.00;7.70;;;;;;;8.35;86.66;100645.01;125871;1319;115193;-67
2023/05/06 21:00:10;;;;;;;12.90;8.60;;;;;;;8.34;86.68;100645.73;125540;1297;130236;-67
2023/05/06 21:03:44;;;;;;;13.60;8.40;;;;;;;8.30;86.82;100642.69;125526;1304;115542;-68
2023/05/06 21:07:30;;;;;;;7.70;6.90;;;;;;;8.27;86.69;100645.25;125488;1306;115062;-68
2023/05/06 21:11:33;;;;;;;9.30;7.40;;;;;;;8.26;86.82;100645.65;125697;1295;114789;-68
2023/05/06 21:15:16;;;;;;;5.30;4.70;;;;;;;8.24;86.88;100650.70;125633;1313;114995;-68
2023/05/06 21:19:14;;;;;;;33.20;16.70;;;;;;;8.22;87.01;100650.06;125161;1300;129319;-67
2023/05/06 21:27:04;;;;;;;19.90;13.00;;;;;;;8.24;87.12;100641.64;126522;1298;635522;-69
2023/05/06 21:30:51;;;;;;;;;;;;;;;;;;;;;
2023/05/06 21:34:36;;;;;;;;;;;;;;;;;;;;;
2023/05/06 21:38:18;;;;;;;13.40;10.80;;;;;;;8.19;87.07;100645.90;127110;1293;114852;-67
2023/05/06 21:42:20;;;;;;;14.40;9.30;;;;;;;8.19;87.18;100647.86;123858;1287;5405297;-68
2023/05/06 21:46:15;;;;;;;;;;;;;;;;;;;;;
2023/05/06 21:50:15;;;;;;;12.70;8.20;;;;;;;8.13;87.43;100658.90;126628;1297;115206;-69